createdAt,value
2023-02-11T09:13:12.032Z,4.99
2023-02-11T09:16:04.969Z,5.01
2023-02-11T09:18:40.408Z,5.06
2023-02-11T09:21:19.385Z,5.06
2023-02-11T09:23:57.586Z,5.04
2023-02-11T09:26:32.573Z,5.07
2023-02-11T09:29:05.226Z,5.08
2023-02-11T09:31:35.266Z,5.11
2023-02-11T09:34:10.377Z,5.10
2023-02-11T09:37:15.402Z,5.10
2023-02-11T09:40:01.230Z,5.15
2023-02-11T09:43:23.840Z,5.18
2023-02-11T09:46:22.071Z,5.21
2023-02-11T09:48:55.411Z,5.20
2023-02-11T09:56:13.856Z,5.33
2023-02-11T09:58:43.915Z,5.37
2023-02-11T10:01:26.756Z,5.43
2023-02-11T10:04:22.003Z,5.38
2023-02-11T10:07:09.633Z,5.38
2023-02-11T10:10:04.001Z,5.37
2023-02-11T10:12:52.959Z,5.38
2023-02-11T10:16:10.326Z,5.40
2023-02-11T10:19:00.925Z,5.45
2023-02-11T10:22:21.863Z,5.48
2023-02-11T10:25:02.534Z,5.44
2023-02-11T10:27:35.577Z,5.44
2023-02-11T10:30:22.305Z,5.39
2023-02-11T10:32:58.011Z,5.42
2023-02-11T10:35:25.011Z,5.43
2023-02-11T10:37:51.828Z,5.49
2023-02-11T10:40:31.408Z,5.46
2023-02-11T10:43:07.746Z,5.48
2023-02-11T10:46:05.073Z,5.42
2023-02-11T10:49:04.270Z,5.46
2023-02-11T10:51:34.239Z,5.37
2023-02-11T10:54:04.237Z,5.38
2023-02-11T10:56:52.131Z,5.37
2023-02-11T10:59:22.099Z,5.35
2023-02-11T11:02:06.012Z,5.36
2023-02-11T11:04:45.944Z,5.34
2023-02-11T11:07:29.748Z,5.31
2023-02-11T11:10:44.193Z,5.36
2023-02-11T11:13:27.281Z,5.38
2023-02-11T11:16:12.744Z,5.39
2023-02-11T11:18:42.262Z,5.38
2023-02-11T11:21:50.983Z,5.40
2023-02-11T11:24:39.623Z,5.38
2023-02-11T11:27:06.973Z,5.41
2023-02-11T11:29:46.355Z,5.42
2023-02-11T11:32:23.674Z,5.41
2023-02-11T11:34:57.203Z,5.49
2023-02-11T11:37:32.639Z,5.51
2023-02-11T11:40:08.714Z,5.51
2023-02-11T11:42:38.842Z,5.50
2023-02-11T11:45:20.350Z,5.54
2023-02-11T11:48:06.691Z,5.62
2023-02-11T11:50:47.804Z,5.57
2023-02-11T11:53:55.230Z,5.62
2023-02-11T11:56:26.850Z,5.65
2023-02-11T11:58:54.488Z,5.67
2023-02-11T12:01:40.081Z,5.63
2023-02-11T12:04:25.197Z,5.61
2023-02-11T12:07:13.990Z,5.59
2023-02-11T12:10:14.149Z,5.66
2023-02-11T12:13:37.396Z,5.61
2023-02-11T12:16:28.962Z,5.61
2023-02-11T12:19:20.389Z,5.64
2023-02-11T12:22:13.017Z,5.68
2023-02-11T12:25:16.398Z,5.66
2023-02-11T12:28:09.172Z,5.70
2023-02-11T12:31:12.168Z,5.67
2023-02-11T12:34:21.236Z,5.64
2023-02-11T12:37:14.435Z,5.74
2023-02-11T12:39:49.880Z,5.72
2023-02-11T12:43:12.826Z,5.72
2023-02-11T12:46:21.768Z,5.76
2023-02-11T12:49:20.083Z,5.85
2023-02-11T12:52:04.748Z,5.85
2023-02-11T12:55:00.819Z,5.92
2023-02-11T12:57:37.803Z,5.95
2023-02-11T13:00:15.615Z,5.94
2023-02-11T13:03:09.681Z,5.97
2023-02-11T13:06:05.259Z,5.98
2023-02-11T13:09:04.786Z,6.03
2023-02-11T13:16:35.449Z,6.14
2023-02-11T13:19:07.725Z,6.11
2023-02-11T13:21:50.305Z,6.14
2023-02-11T13:24:29.537Z,6.23
2023-02-11T13:27:34.574Z,6.23
2023-02-11T13:30:34.785Z,6.33
2023-02-11T13:33:03.834Z,6.36
2023-02-11T13:35:34.037Z,6.44
2023-02-11T13:38:13.193Z,6.45
2023-02-11T13:40:40.507Z,6.46
2023-02-11T13:43:22.956Z,6.47
2023-02-11T13:50:30.224Z,6.55
2023-02-11T13:53:00.782Z,6.57
2023-02-11T13:55:28.908Z,6.63
2023-02-11T13:58:17.666Z,6.62
2023-02-11T14:00:50.688Z,6.67
2023-02-11T14:03:57.714Z,6.68
2023-02-11T14:06:46.730Z,6.69
2023-02-11T14:14:34.858Z,6.87
2023-02-11T14:17:07.824Z,6.94
2023-02-11T14:19:46.156Z,6.97
2023-02-11T14:22:40.191Z,6.98
2023-02-11T14:25:22.090Z,7.01
2023-02-11T14:28:15.588Z,7.04
2023-02-11T14:31:13.037Z,6.97
2023-02-11T14:34:15.213Z,6.96
2023-02-11T14:37:09.806Z,7.03
2023-02-11T14:39:58.224Z,7.00
2023-02-11T14:42:28.405Z,7.09
2023-02-11T14:45:06.620Z,7.13
2023-02-11T14:47:47.115Z,7.08
2023-02-11T14:50:29.066Z,7.14
2023-02-11T14:52:58.921Z,7.14
2023-02-11T14:55:34.752Z,7.08
2023-02-11T14:58:18.410Z,7.10
2023-02-11T15:00:52.952Z,7.08
2023-02-11T15:03:27.118Z,7.12
2023-02-11T15:06:05.075Z,7.15
2023-02-11T15:08:36.295Z,7.08
2023-02-11T15:11:09.824Z,7.05
2023-02-11T15:13:36.691Z,7.05
2023-02-11T15:16:11.044Z,7.11
2023-02-11T15:18:42.143Z,7.09
2023-02-11T15:21:10.316Z,7.09
2023-02-11T15:23:37.663Z,7.05
2023-02-11T15:26:14.873Z,7.04
2023-02-11T15:28:52.132Z,7.01
2023-02-11T15:31:23.511Z,7.03
2023-02-11T15:33:52.293Z,7.07
2023-02-11T15:36:28.210Z,7.01
2023-02-11T15:39:31.607Z,7.00
2023-02-11T15:42:24.292Z,6.96
2023-02-11T15:45:14.250Z,6.97
2023-02-11T15:47:51.530Z,6.94
2023-02-11T15:50:32.993Z,6.93
2023-02-11T15:53:06.140Z,6.93
2023-02-11T15:55:33.461Z,6.90
2023-02-11T15:58:01.779Z,6.90
2023-02-11T16:00:36.798Z,6.88
2023-02-11T16:03:04.623Z,6.86
2023-02-11T16:05:40.574Z,6.84
2023-02-11T16:08:26.708Z,6.82
2023-02-11T16:11:03.160Z,6.80
2023-02-11T16:13:34.246Z,6.80
2023-02-11T16:16:04.752Z,6.80
2023-02-11T16:18:40.335Z,6.76
2023-02-11T16:21:18.030Z,6.77
2023-02-11T16:23:56.072Z,6.76
2023-02-11T16:26:43.009Z,6.77
2023-02-11T16:29:16.846Z,6.76
2023-02-11T16:31:47.170Z,6.73
2023-02-11T16:34:24.881Z,6.67
2023-02-11T16:36:53.177Z,6.65
2023-02-11T16:39:24.325Z,6.60
2023-02-11T16:41:52.066Z,6.58
2023-02-11T16:44:19.777Z,6.55
2023-02-11T16:46:47.770Z,6.55
2023-02-11T16:49:22.128Z,6.48
2023-02-11T16:51:56.866Z,6.46
2023-02-11T16:54:24.193Z,6.47
2023-02-11T16:56:51.327Z,6.45
2023-02-11T16:59:18.419Z,6.43
2023-02-11T17:01:46.466Z,6.43
2023-02-11T17:04:32.288Z,6.41
2023-02-11T17:07:03.064Z,6.41
2023-02-11T17:09:36.069Z,6.37
2023-02-11T17:12:06.703Z,6.39
2023-02-11T17:14:41.030Z,6.39
2023-02-11T17:20:43.488Z,6.38
2023-02-11T17:23:30.370Z,6.41
2023-02-11T17:25:57.326Z,6.41
2023-02-11T17:28:24.210Z,6.42
2023-02-11T17:30:51.114Z,6.40
2023-02-11T17:33:21.126Z,6.39
2023-02-11T17:35:48.080Z,6.40
2023-02-11T17:38:22.362Z,6.37
2023-02-11T17:41:13.854Z,6.36
2023-02-11T17:43:40.851Z,6.34
2023-02-11T17:46:08.864Z,6.33
2023-02-11T17:48:38.605Z,6.34
2023-02-11T17:51:17.145Z,6.35
2023-02-11T17:53:43.859Z,6.30
2023-02-11T17:56:10.778Z,6.29
2023-02-11T17:58:37.544Z,6.29
2023-02-11T18:01:04.755Z,6.30
2023-02-11T18:03:32.961Z,6.29
2023-02-11T18:06:05.626Z,6.22
2023-02-11T18:08:34.661Z,6.27
2023-02-11T18:11:02.336Z,6.25
2023-02-11T18:13:29.687Z,6.24
2023-02-11T18:16:03.581Z,6.23
2023-02-11T18:18:32.151Z,6.23
2023-02-11T18:21:01.915Z,6.25
2023-02-11T18:23:28.993Z,6.28
2023-02-11T18:25:56.255Z,6.29
2023-02-11T18:28:23.098Z,6.30
2023-02-11T18:30:58.527Z,6.28
2023-02-11T18:33:26.215Z,6.25
2023-02-11T18:35:53.777Z,6.28
2023-02-11T18:38:22.226Z,6.25
2023-02-11T18:40:50.520Z,6.25
2023-02-11T18:43:18.505Z,6.25
2023-02-11T18:45:47.979Z,6.30
2023-02-11T18:48:16.041Z,6.31
2023-02-11T18:50:44.616Z,6.36
2023-02-11T18:53:13.358Z,6.30
2023-02-11T18:55:43.138Z,6.30
2023-02-11T18:58:10.088Z,6.36
2023-02-11T19:00:41.539Z,6.32
2023-02-11T19:03:08.562Z,6.30
2023-02-11T19:05:43.534Z,6.30
2023-02-11T19:08:11.097Z,6.32
2023-02-11T19:10:44.371Z,6.31
2023-02-11T19:13:12.122Z,6.33
2023-02-11T19:15:46.204Z,6.34
2023-02-11T19:18:15.474Z,6.30
2023-02-11T19:20:43.879Z,6.31
2023-02-11T19:23:11.498Z,6.29
2023-02-11T19:25:45.302Z,6.27
2023-02-11T19:28:13.370Z,6.28
2023-02-11T19:30:40.683Z,6.24
2023-02-11T19:33:10.120Z,6.30
2023-02-11T19:35:37.626Z,6.27
2023-02-11T19:38:06.144Z,6.29
2023-02-11T19:40:33.119Z,6.29
2023-02-11T19:43:00.326Z,6.27
2023-02-11T19:45:27.294Z,6.25
2023-02-11T19:47:57.856Z,6.24
2023-02-11T19:50:28.780Z,6.23
2023-02-11T19:52:55.691Z,6.25
2023-02-11T19:55:22.642Z,6.25
2023-02-11T19:57:49.532Z,6.25
2023-02-11T20:00:16.920Z,6.24
2023-02-11T20:02:43.965Z,6.25
2023-02-11T20:05:11.009Z,6.22
2023-02-11T20:07:38.365Z,6.23
2023-02-11T20:10:06.859Z,6.22
2023-02-11T20:12:33.805Z,6.22
2023-02-11T20:15:00.704Z,6.22
2023-02-11T20:17:27.563Z,6.21
2023-02-11T20:19:54.429Z,6.21
2023-02-11T20:22:21.237Z,6.19
2023-02-11T20:24:48.088Z,6.20
2023-02-11T20:27:14.881Z,6.18
2023-02-11T20:29:41.606Z,6.18
2023-02-11T20:32:08.628Z,6.15
2023-02-11T20:34:35.692Z,6.15
2023-02-11T20:37:02.678Z,6.16
2023-02-11T20:39:29.569Z,6.16
2023-02-11T20:41:57.612Z,6.15
2023-02-11T20:44:24.552Z,6.15
2023-02-11T20:46:54.211Z,6.16
2023-02-11T20:49:24.412Z,6.14
2023-02-11T20:51:53.608Z,6.15
2023-02-11T20:54:23.062Z,6.13
2023-02-11T20:56:53.608Z,6.13
2023-02-11T20:59:22.080Z,6.11
2023-02-11T21:01:55.509Z,6.14
2023-02-11T21:04:29.903Z,6.15
2023-02-11T21:07:00.584Z,6.17
2023-02-11T21:09:31.641Z,6.18
2023-02-11T21:11:58.955Z,6.17
2023-02-11T21:14:26.641Z,6.14
2023-02-11T21:16:53.814Z,6.14
2023-02-11T21:19:21.259Z,6.15
2023-02-11T21:21:48.360Z,6.13
2023-02-11T21:24:15.819Z,6.14
2023-02-11T21:26:43.031Z,6.12
2023-02-11T21:29:10.625Z,6.10
2023-02-11T21:31:37.891Z,6.11
2023-02-11T21:34:05.631Z,6.10
2023-02-11T21:36:32.571Z,6.13
2023-02-11T21:39:00.185Z,6.14
2023-02-11T21:41:27.398Z,6.12
2023-02-11T21:43:54.536Z,6.11
2023-02-11T21:46:22.540Z,6.14
2023-02-11T21:48:50.139Z,6.14
2023-02-11T21:51:20.766Z,6.14
2023-02-11T21:53:48.012Z,6.13
2023-02-11T21:56:18.003Z,6.16
2023-02-11T21:58:46.211Z,6.16
2023-02-11T22:01:18.790Z,6.15
2023-02-11T22:03:46.461Z,6.15
2023-02-11T22:06:17.903Z,6.17
2023-02-11T22:08:44.662Z,6.17
2023-02-11T22:11:13.400Z,6.16
2023-02-11T22:13:42.052Z,6.15
2023-02-11T22:16:16.263Z,6.14
2023-02-11T22:18:46.940Z,6.16
2023-02-11T22:21:20.617Z,6.18
2023-02-11T22:23:47.624Z,6.17
2023-02-11T22:26:21.557Z,6.17
2023-02-11T22:28:49.987Z,6.16
2023-02-11T22:31:24.375Z,6.14
2023-02-11T22:33:51.423Z,6.14
2023-02-11T22:36:25.740Z,6.15
2023-02-11T22:38:53.430Z,6.16
2023-02-11T22:41:21.546Z,6.17
2023-02-11T22:43:48.787Z,6.20
2023-02-11T22:46:18.458Z,6.21
2023-02-11T22:48:45.878Z,6.23
2023-02-11T22:51:19.492Z,6.23
2023-02-11T22:53:55.234Z,6.22
2023-02-11T22:56:23.352Z,6.23
2023-02-11T22:58:51.224Z,6.22
2023-02-11T23:01:18.646Z,6.24
2023-02-11T23:03:46.274Z,6.21
2023-02-11T23:06:13.091Z,6.23
2023-02-11T23:08:41.085Z,6.24
2023-02-11T23:11:16.586Z,6.25
2023-02-11T23:13:44.687Z,6.22
2023-02-11T23:16:16.639Z,6.23
2023-02-11T23:18:46.135Z,6.20
2023-02-11T23:21:22.796Z,6.21
2023-02-11T23:23:55.045Z,6.22
2023-02-11T23:26:22.092Z,6.21
2023-02-11T23:28:48.869Z,6.22
2023-02-11T23:31:28.883Z,6.22
2023-02-11T23:33:56.183Z,6.17
2023-02-11T23:36:23.877Z,6.21
2023-02-11T23:38:51.757Z,6.22
2023-02-11T23:41:19.626Z,6.23
2023-02-11T23:43:54.682Z,6.23
2023-02-11T23:46:23.074Z,6.24
2023-02-11T23:48:51.219Z,6.24
2023-02-11T23:51:19.415Z,6.25
2023-02-11T23:53:46.662Z,6.25
2023-02-11T23:56:23.464Z,6.26
2023-02-11T23:58:53.107Z,6.27
